sensor_id;sensor_type;location;lat;lon;timestamp;temperature;humidity
15947;DHT22;8072;52.554;7.966;2022-12-24T00:02:01;7.00;99.90
15947;DHT22;8072;52.554;7.966;2022-12-24T00:04:27;7.00;99.90
15947;DHT22;8072;52.554;7.966;2022-12-24T00:06:52;7.10;99.90
15947;DHT22;8072;52.554;7.966;2022-12-24T00:09:18;7.10;99.90
15947;DHT22;8072;52.554;7.966;2022-12-24T00:11:44;7.10;99.90
15947;DHT22;8072;52.554;7.966;2022-12-24T00:14:10;7.10;99.90
15947;DHT22;8072;52.554;7.966;2022-12-24T00:16:35;7.00;99.90
15947;DHT22;8072;52.554;7.966;2022-12-24T00:19:01;7.10;99.90
15947;DHT22;8072;52.554;7.966;2022-12-24T00:21:27;7.00;99.90
15947;DHT22;8072;52.554;7.966;2022-12-24T00:23:52;7.10;99.90
15947;DHT22;8072;52.554;7.966;2022-12-24T00:26:18;7.10;99.90
15947;DHT22;8072;52.554;7.966;2022-12-24T00:28:44;7.10;99.90
15947;DHT22;8072;52.554;7.966;2022-12-24T00:31:15;7.10;99.90
15947;DHT22;8072;52.554;7.966;2022-12-24T00:33:42;7.10;99.90
15947;DHT22;8072;52.554;7.966;2022-12-24T00:36:08;7.10;99.90
15947;DHT22;8072;52.554;7.966;2022-12-24T00:38:35;7.10;99.90
15947;DHT22;8072;52.554;7.966;2022-12-24T00:41:02;7.10;99.90
15947;DHT22;8072;52.554;7.966;2022-12-24T00:43:28;7.10;99.90
15947;DHT22;8072;52.554;7.966;2022-12-24T00:45:55;7.10;99.90
15947;DHT22;8072;52.554;7.966;2022-12-24T00:48:21;7.10;99.90
15947;DHT22;8072;52.554;7.966;2022-12-24T00:50:48;7.10;99.90
15947;DHT22;8072;52.554;7.966;2022-12-24T00:53:15;7.20;99.90
15947;DHT22;8072;52.554;7.966;2022-12-24T00:55:40;7.20;99.90
15947;DHT22;8072;52.554;7.966;2022-12-24T00:58:06;7.20;99.90
15947;DHT22;8072;52.554;7.966;2022-12-24T01:00:32;7.30;99.90
15947;DHT22;8072;52.554;7.966;2022-12-24T01:02:58;7.50;99.90
15947;DHT22;8072;52.554;7.966;2022-12-24T01:05:24;7.60;99.90
15947;DHT22;8072;52.554;7.966;2022-12-24T01:07:49;7.90;99.90
15947;DHT22;8072;52.554;7.966;2022-12-24T01:10:17;8.00;99.90
15947;DHT22;8072;52.554;7.966;2022-12-24T01:12:45;8.20;99.90
15947;DHT22;8072;52.554;7.966;2022-12-24T01:15:12;8.50;99.90
15947;DHT22;8072;52.554;7.966;2022-12-24T01:17:39;8.80;99.90
15947;DHT22;8072;52.554;7.966;2022-12-24T01:20:10;9.00;99.90
15947;DHT22;8072;52.554;7.966;2022-12-24T01:22:37;9.10;99.90
15947;DHT22;8072;52.554;7.966;2022-12-24T01:25:03;9.10;99.90
15947;DHT22;8072;52.554;7.966;2022-12-24T01:27:29;9.20;99.90
15947;DHT22;8072;52.554;7.966;2022-12-24T01:29:55;9.20;99.90
15947;DHT22;8072;52.554;7.966;2022-12-24T01:32:21;9.20;99.90
15947;DHT22;8072;52.554;7.966;2022-12-24T01:34:46;9.20;99.90
15947;DHT22;8072;52.554;7.966;2022-12-24T01:37:12;9.20;99.90
15947;DHT22;8072;52.554;7.966;2022-12-24T01:39:38;9.20;99.90
15947;DHT22;8072;52.554;7.966;2022-12-24T01:42:18;9.30;99.90
15947;DHT22;8072;52.554;7.966;2022-12-24T01:45:43;9.30;99.90
15947;DHT22;8072;52.554;7.966;2022-12-24T01:50:45;9.30;99.90
15947;DHT22;8072;52.554;7.966;2022-12-24T01:53:13;9.30;99.90
15947;DHT22;8072;52.554;7.966;2022-12-24T01:55:40;9.30;99.90
15947;DHT22;8072;52.554;7.966;2022-12-24T01:58:08;9.40;99.90
15947;DHT22;8072;52.554;7.966;2022-12-24T02:00:35;9.30;99.90
15947;DHT22;8072;52.554;7.966;2022-12-24T02:03:01;9.30;99.90
15947;DHT22;8072;52.554;7.966;2022-12-24T02:05:35;9.30;99.90
15947;DHT22;8072;52.554;7.966;2022-12-24T02:08:04;9.30;99.90
15947;DHT22;8072;52.554;7.966;2022-12-24T02:10:30;9.30;99.90
15947;DHT22;8072;52.554;7.966;2022-12-24T02:12:57;9.40;99.90
15947;DHT22;8072;52.554;7.966;2022-12-24T02:15:24;9.30;99.90
15947;DHT22;8072;52.554;7.966;2022-12-24T02:18:08;9.30;99.90
15947;DHT22;8072;52.554;7.966;2022-12-24T02:26:06;9.40;99.90
15947;DHT22;8072;52.554;7.966;2022-12-24T02:32:03;9.40;99.90
15947;DHT22;8072;52.554;7.966;2022-12-24T02:34:38;9.40;99.90
15947;DHT22;8072;52.554;7.966;2022-12-24T02:37:35;9.40;99.90
15947;DHT22;8072;52.554;7.966;2022-12-24T02:40:05;9.30;99.90
15947;DHT22;8072;52.554;7.966;2022-12-24T02:42:40;9.30;99.90
15947;DHT22;8072;52.554;7.966;2022-12-24T02:45:10;9.30;99.90
15947;DHT22;8072;52.554;7.966;2022-12-24T02:47:37;9.30;99.90
15947;DHT22;8072;52.554;7.966;2022-12-24T02:50:07;9.30;99.90
15947;DHT22;8072;52.554;7.966;2022-12-24T02:52:39;9.30;99.90
15947;DHT22;8072;52.554;7.966;2022-12-24T02:57:46;9.30;99.90
15947;DHT22;8072;52.554;7.966;2022-12-24T03:00:17;9.40;99.90
15947;DHT22;8072;52.554;7.966;2022-12-24T03:11:07;9.40;99.90
15947;DHT22;8072;52.554;7.966;2022-12-24T03:13:33;9.40;99.90
15947;DHT22;8072;52.554;7.966;2022-12-24T03:15:59;9.40;99.90
15947;DHT22;8072;52.554;7.966;2022-12-24T03:18:29;9.40;99.90
15947;DHT22;8072;52.554;7.966;2022-12-24T03:21:10;9.40;99.90
15947;DHT22;8072;52.554;7.966;2022-12-24T03:23:37;9.40;99.90
15947;DHT22;8072;52.554;7.966;2022-12-24T03:26:05;9.40;99.90
15947;DHT22;8072;52.554;7.966;2022-12-24T03:28:32;9.40;99.90
15947;DHT22;8072;52.554;7.966;2022-12-24T03:31:02;9.40;99.90
15947;DHT22;8072;52.554;7.966;2022-12-24T03:33:28;9.40;99.90
15947;DHT22;8072;52.554;7.966;2022-12-24T03:35:54;9.40;99.90
15947;DHT22;8072;52.554;7.966;2022-12-24T03:38:19;9.40;99.90
15947;DHT22;8072;52.554;7.966;2022-12-24T03:40:47;9.40;99.90
15947;DHT22;8072;52.554;7.966;2022-12-24T03:43:12;9.40;99.90
15947;DHT22;8072;52.554;7.966;2022-12-24T03:45:39;9.40;99.90
15947;DHT22;8072;52.554;7.966;2022-12-24T03:48:05;9.40;99.90
15947;DHT22;8072;52.554;7.966;2022-12-24T03:50:31;9.40;99.90
15947;DHT22;8072;52.554;7.966;2022-12-24T03:52:57;9.40;99.90
15947;DHT22;8072;52.554;7.966;2022-12-24T03:55:23;9.40;99.90
15947;DHT22;8072;52.554;7.966;2022-12-24T03:57:49;9.40;99.90
15947;DHT22;8072;52.554;7.966;2022-12-24T04:00:15;9.40;99.90
15947;DHT22;8072;52.554;7.966;2022-12-24T04:02:42;9.40;99.90
15947;DHT22;8072;52.554;7.966;2022-12-24T04:05:13;9.40;99.90
15947;DHT22;8072;52.554;7.966;2022-12-24T04:07:39;9.40;99.90
15947;DHT22;8072;52.554;7.966;2022-12-24T04:10:06;9.50;99.90
15947;DHT22;8072;52.554;7.966;2022-12-24T04:12:32;9.50;99.90
15947;DHT22;8072;52.554;7.966;2022-12-24T04:14:58;9.50;99.90
15947;DHT22;8072;52.554;7.966;2022-12-24T04:17:23;9.50;99.90
15947;DHT22;8072;52.554;7.966;2022-12-24T04:19:50;9.50;99.90
15947;DHT22;8072;52.554;7.966;2022-12-24T04:22:16;9.50;99.90
15947;DHT22;8072;52.554;7.966;2022-12-24T04:24:42;9.40;99.90
15947;DHT22;8072;52.554;7.966;2022-12-24T04:27:08;9.50;99.90
15947;DHT22;8072;52.554;7.966;2022-12-24T04:29:34;9.40;99.90
15947;DHT22;8072;52.554;7.966;2022-12-24T04:31:59;9.40;99.90
15947;DHT22;8072;52.554;7.966;2022-12-24T04:34:26;9.40;99.90
15947;DHT22;8072;52.554;7.966;2022-12-24T04:36:52;9.30;99.90
15947;DHT22;8072;52.554;7.966;2022-12-24T04:39:18;9.40;99.90
15947;DHT22;8072;52.554;7.966;2022-12-24T04:41:45;9.30;99.90
15947;DHT22;8072;52.554;7.966;2022-12-24T04:44:11;9.30;99.90
15947;DHT22;8072;52.554;7.966;2022-12-24T04:46:37;9.30;99.90
15947;DHT22;8072;52.554;7.966;2022-12-24T04:49:03;9.30;99.90
15947;DHT22;8072;52.554;7.966;2022-12-24T04:51:28;9.30;99.90
15947;DHT22;8072;52.554;7.966;2022-12-24T04:53:55;9.30;99.90
15947;DHT22;8072;52.554;7.966;2022-12-24T04:56:23;9.30;99.90
15947;DHT22;8072;52.554;7.966;2022-12-24T04:58:50;9.30;99.90
15947;DHT22;8072;52.554;7.966;2022-12-24T05:01:19;9.30;99.90
15947;DHT22;8072;52.554;7.966;2022-12-24T05:03:45;9.30;99.90
15947;DHT22;8072;52.554;7.966;2022-12-24T05:06:13;9.30;99.90
15947;DHT22;8072;52.554;7.966;2022-12-24T05:08:39;9.20;99.90
15947;DHT22;8072;52.554;7.966;2022-12-24T05:11:05;9.20;99.90
15947;DHT22;8072;52.554;7.966;2022-12-24T05:13:32;9.20;99.90
15947;DHT22;8072;52.554;7.966;2022-12-24T05:15:58;9.20;99.90
15947;DHT22;8072;52.554;7.966;2022-12-24T05:18:24;9.20;99.90
15947;DHT22;8072;52.554;7.966;2022-12-24T05:20:49;9.20;99.90
15947;DHT22;8072;52.554;7.966;2022-12-24T05:23:20;9.10;99.90
15947;DHT22;8072;52.554;7.966;2022-12-24T05:26:18;9.10;99.90
15947;DHT22;8072;52.554;7.966;2022-12-24T05:28:56;9.10;99.90
15947;DHT22;8072;52.554;7.966;2022-12-24T05:31:24;9.10;99.90
15947;DHT22;8072;52.554;7.966;2022-12-24T05:33:51;9.10;99.90
15947;DHT22;8072;52.554;7.966;2022-12-24T05:36:19;9.10;99.90
15947;DHT22;8072;52.554;7.966;2022-12-24T05:38:45;9.10;99.90
15947;DHT22;8072;52.554;7.966;2022-12-24T05:41:10;9.10;99.90
15947;DHT22;8072;52.554;7.966;2022-12-24T05:43:37;9.10;99.90
15947;DHT22;8072;52.554;7.966;2022-12-24T05:46:08;9.10;99.90
15947;DHT22;8072;52.554;7.966;2022-12-24T05:48:34;9.00;99.90
15947;DHT22;8072;52.554;7.966;2022-12-24T05:51:04;9.10;99.90
15947;DHT22;8072;52.554;7.966;2022-12-24T05:53:30;9.10;99.90
15947;DHT22;8072;52.554;7.966;2022-12-24T05:56:05;9.00;99.90
15947;DHT22;8072;52.554;7.966;2022-12-24T05:58:31;9.00;99.90
15947;DHT22;8072;52.554;7.966;2022-12-24T06:00:57;9.10;99.90
15947;DHT22;8072;52.554;7.966;2022-12-24T06:03:23;9.00;99.90
15947;DHT22;8072;52.554;7.966;2022-12-24T06:05:57;9.10;99.90
15947;DHT22;8072;52.554;7.966;2022-12-24T06:08:22;9.10;99.90
15947;DHT22;8072;52.554;7.966;2022-12-24T06:10:56;9.10;99.90
15947;DHT22;8072;52.554;7.966;2022-12-24T06:13:23;9.00;99.90
15947;DHT22;8072;52.554;7.966;2022-12-24T06:15:50;9.00;99.90
15947;DHT22;8072;52.554;7.966;2022-12-24T06:18:15;9.00;99.90
15947;DHT22;8072;52.554;7.966;2022-12-24T06:20:41;9.10;99.90
15947;DHT22;8072;52.554;7.966;2022-12-24T06:23:07;9.00;99.90
15947;DHT22;8072;52.554;7.966;2022-12-24T06:25:33;9.00;99.90
15947;DHT22;8072;52.554;7.966;2022-12-24T06:27:59;9.00;99.90
15947;DHT22;8072;52.554;7.966;2022-12-24T06:30:25;9.00;99.90
15947;DHT22;8072;52.554;7.966;2022-12-24T06:32:50;9.00;99.90
15947;DHT22;8072;52.554;7.966;2022-12-24T06:35:16;9.00;99.90
15947;DHT22;8072;52.554;7.966;2022-12-24T06:37:42;9.00;99.90
15947;DHT22;8072;52.554;7.966;2022-12-24T06:40:08;9.00;99.90
15947;DHT22;8072;52.554;7.966;2022-12-24T06:42:34;9.10;99.90
15947;DHT22;8072;52.554;7.966;2022-12-24T06:44:59;9.00;99.90
15947;DHT22;8072;52.554;7.966;2022-12-24T06:47:25;9.00;99.90
15947;DHT22;8072;52.554;7.966;2022-12-24T06:49:51;9.00;99.90
15947;DHT22;8072;52.554;7.966;2022-12-24T06:52:17;8.90;99.90
15947;DHT22;8072;52.554;7.966;2022-12-24T06:54:42;9.00;99.90
15947;DHT22;8072;52.554;7.966;2022-12-24T06:57:08;9.00;99.90
15947;DHT22;8072;52.554;7.966;2022-12-24T06:59:34;9.00;99.90
15947;DHT22;8072;52.554;7.966;2022-12-24T07:02:00;9.00;99.90
15947;DHT22;8072;52.554;7.966;2022-12-24T07:04:25;9.00;99.90
15947;DHT22;8072;52.554;7.966;2022-12-24T07:06:51;9.00;99.90
15947;DHT22;8072;52.554;7.966;2022-12-24T07:09:17;9.00;99.90
15947;DHT22;8072;52.554;7.966;2022-12-24T07:11:44;8.90;99.90
15947;DHT22;8072;52.554;7.966;2022-12-24T07:14:09;8.90;99.90
15947;DHT22;8072;52.554;7.966;2022-12-24T07:16:35;8.90;99.90
15947;DHT22;8072;52.554;7.966;2022-12-24T07:19:01;8.90;99.90
15947;DHT22;8072;52.554;7.966;2022-12-24T07:21:26;8.90;99.90
15947;DHT22;8072;52.554;7.966;2022-12-24T07:23:52;8.90;99.90
15947;DHT22;8072;52.554;7.966;2022-12-24T07:26:18;8.80;99.90
15947;DHT22;8072;52.554;7.966;2022-12-24T07:28:43;8.80;99.90
15947;DHT22;8072;52.554;7.966;2022-12-24T07:31:09;8.80;99.90
15947;DHT22;8072;52.554;7.966;2022-12-24T07:33:35;8.80;99.90
15947;DHT22;8072;52.554;7.966;2022-12-24T07:36:06;8.80;99.90
15947;DHT22;8072;52.554;7.966;2022-12-24T07:38:33;8.80;99.90
15947;DHT22;8072;52.554;7.966;2022-12-24T07:40:59;8.80;99.90
15947;DHT22;8072;52.554;7.966;2022-12-24T07:43:26;8.80;99.90
15947;DHT22;8072;52.554;7.966;2022-12-24T07:45:56;8.80;99.90
15947;DHT22;8072;52.554;7.966;2022-12-24T07:48:23;8.80;99.90
15947;DHT22;8072;52.554;7.966;2022-12-24T07:50:50;8.80;99.90
15947;DHT22;8072;52.554;7.966;2022-12-24T07:53:16;8.80;99.90
15947;DHT22;8072;52.554;7.966;2022-12-24T07:55:43;8.80;99.90
15947;DHT22;8072;52.554;7.966;2022-12-24T07:58:09;8.80;99.90
15947;DHT22;8072;52.554;7.966;2022-12-24T08:00:34;8.90;99.90
15947;DHT22;8072;52.554;7.966;2022-12-24T08:03:00;8.90;99.90
15947;DHT22;8072;52.554;7.966;2022-12-24T08:05:26;8.90;99.90
15947;DHT22;8072;52.554;7.966;2022-12-24T08:07:53;8.90;99.90
15947;DHT22;8072;52.554;7.966;2022-12-24T08:10:19;8.90;99.90
15947;DHT22;8072;52.554;7.966;2022-12-24T08:12:44;8.90;99.90
15947;DHT22;8072;52.554;7.966;2022-12-24T08:15:12;8.80;99.90
15947;DHT22;8072;52.554;7.966;2022-12-24T08:17:38;8.90;99.90
15947;DHT22;8072;52.554;7.966;2022-12-24T08:20:04;8.90;99.90
15947;DHT22;8072;52.554;7.966;2022-12-24T08:22:30;8.90;99.90
15947;DHT22;8072;52.554;7.966;2022-12-24T08:24:56;8.80;99.90
15947;DHT22;8072;52.554;7.966;2022-12-24T08:27:22;8.90;99.90
15947;DHT22;8072;52.554;7.966;2022-12-24T08:29:47;8.90;99.90
15947;DHT22;8072;52.554;7.966;2022-12-24T08:32:13;8.90;99.90
15947;DHT22;8072;52.554;7.966;2022-12-24T08:34:39;9.00;99.90
15947;DHT22;8072;52.554;7.966;2022-12-24T08:37:04;9.10;99.90
15947;DHT22;8072;52.554;7.966;2022-12-24T08:39:30;9.10;99.90
15947;DHT22;8072;52.554;7.966;2022-12-24T08:41:56;9.10;99.90
15947;DHT22;8072;52.554;7.966;2022-12-24T08:44:22;9.10;99.90
15947;DHT22;8072;52.554;7.966;2022-12-24T08:46:48;9.20;99.90
15947;DHT22;8072;52.554;7.966;2022-12-24T08:49:13;9.20;99.90
15947;DHT22;8072;52.554;7.966;2022-12-24T08:51:39;9.20;99.90
15947;DHT22;8072;52.554;7.966;2022-12-24T08:54:05;9.20;99.90
15947;DHT22;8072;52.554;7.966;2022-12-24T08:56:30;9.20;99.90
15947;DHT22;8072;52.554;7.966;2022-12-24T08:58:56;9.20;99.90
15947;DHT22;8072;52.554;7.966;2022-12-24T09:01:22;9.20;99.90
15947;DHT22;8072;52.554;7.966;2022-12-24T09:03:48;9.20;99.90
15947;DHT22;8072;52.554;7.966;2022-12-24T09:06:14;9.30;99.90
15947;DHT22;8072;52.554;7.966;2022-12-24T09:08:40;9.30;99.90
15947;DHT22;8072;52.554;7.966;2022-12-24T09:11:08;9.30;99.90
15947;DHT22;8072;52.554;7.966;2022-12-24T09:13:35;9.30;99.90
15947;DHT22;8072;52.554;7.966;2022-12-24T09:16:01;9.30;99.90
15947;DHT22;8072;52.554;7.966;2022-12-24T09:18:28;9.30;99.90
15947;DHT22;8072;52.554;7.966;2022-12-24T09:21:01;9.40;99.90
15947;DHT22;8072;52.554;7.966;2022-12-24T09:23:28;9.40;99.90
15947;DHT22;8072;52.554;7.966;2022-12-24T09:25:54;9.40;99.90
15947;DHT22;8072;52.554;7.966;2022-12-24T09:28:20;9.40;99.90
15947;DHT22;8072;52.554;7.966;2022-12-24T09:30:58;9.40;99.90
15947;DHT22;8072;52.554;7.966;2022-12-24T09:33:25;9.40;99.90
15947;DHT22;8072;52.554;7.966;2022-12-24T09:35:51;9.40;99.90
15947;DHT22;8072;52.554;7.966;2022-12-24T09:38:18;9.40;99.90
15947;DHT22;8072;52.554;7.966;2022-12-24T09:40:45;9.40;99.90
15947;DHT22;8072;52.554;7.966;2022-12-24T09:43:22;9.40;99.90
15947;DHT22;8072;52.554;7.966;2022-12-24T09:48:33;9.40;99.90
15947;DHT22;8072;52.554;7.966;2022-12-24T09:51:14;9.40;99.90
15947;DHT22;8072;52.554;7.966;2022-12-24T09:54:05;9.50;99.90
15947;DHT22;8072;52.554;7.966;2022-12-24T09:56:39;9.50;99.90
15947;DHT22;8072;52.554;7.966;2022-12-24T09:59:09;9.40;99.90
15947;DHT22;8072;52.554;7.966;2022-12-24T10:01:35;9.40;99.90
15947;DHT22;8072;52.554;7.966;2022-12-24T10:04:09;9.40;99.90
15947;DHT22;8072;52.554;7.966;2022-12-24T10:06:53;9.40;99.90
15947;DHT22;8072;52.554;7.966;2022-12-24T10:09:40;9.40;99.90
15947;DHT22;8072;52.554;7.966;2022-12-24T10:20:47;9.60;99.90
15947;DHT22;8072;52.554;7.966;2022-12-24T10:23:39;9.60;99.90
15947;DHT22;8072;52.554;7.966;2022-12-24T10:26:26;9.70;99.90
15947;DHT22;8072;52.554;7.966;2022-12-24T10:29:13;9.70;99.90
15947;DHT22;8072;52.554;7.966;2022-12-24T10:34:48;9.70;99.90
15947;DHT22;8072;52.554;7.966;2022-12-24T10:37:23;9.70;99.90
15947;DHT22;8072;52.554;7.966;2022-12-24T10:39:49;9.60;99.90
15947;DHT22;8072;52.554;7.966;2022-12-24T10:42:16;9.60;99.90
15947;DHT22;8072;52.554;7.966;2022-12-24T10:44:46;9.60;99.90
15947;DHT22;8072;52.554;7.966;2022-12-24T10:47:16;9.60;99.90
15947;DHT22;8072;52.554;7.966;2022-12-24T10:49:56;9.50;99.90
15947;DHT22;8072;52.554;7.966;2022-12-24T10:52:28;9.50;99.90
15947;DHT22;8072;52.554;7.966;2022-12-24T10:55:06;9.50;99.90
15947;DHT22;8072;52.554;7.966;2022-12-24T10:57:33;9.60;99.90
15947;DHT22;8072;52.554;7.966;2022-12-24T10:59:59;9.70;99.90
15947;DHT22;8072;52.554;7.966;2022-12-24T11:04:53;9.70;99.90
15947;DHT22;8072;52.554;7.966;2022-12-24T11:07:21;9.70;99.90
15947;DHT22;8072;52.554;7.966;2022-12-24T11:10:21;9.70;99.90
15947;DHT22;8072;52.554;7.966;2022-12-24T11:12:48;9.80;99.90
15947;DHT22;8072;52.554;7.966;2022-12-24T11:15:28;9.80;99.90
15947;DHT22;8072;52.554;7.966;2022-12-24T11:18:14;9.80;99.90
15947;DHT22;8072;52.554;7.966;2022-12-24T11:20:40;9.80;99.90
15947;DHT22;8072;52.554;7.966;2022-12-24T11:23:16;9.80;99.90
15947;DHT22;8072;52.554;7.966;2022-12-24T11:25:46;9.80;99.90
15947;DHT22;8072;52.554;7.966;2022-12-24T11:28:21;9.80;99.90
15947;DHT22;8072;52.554;7.966;2022-12-24T11:31:04;9.70;99.90
15947;DHT22;8072;52.554;7.966;2022-12-24T11:33:30;9.70;99.90
15947;DHT22;8072;52.554;7.966;2022-12-24T11:36:00;9.60;99.90
15947;DHT22;8072;52.554;7.966;2022-12-24T11:38:27;9.60;99.90
15947;DHT22;8072;52.554;7.966;2022-12-24T11:41:10;9.60;99.90
15947;DHT22;8072;52.554;7.966;2022-12-24T11:43:43;9.60;99.90
15947;DHT22;8072;52.554;7.966;2022-12-24T11:46:14;9.50;99.90
15947;DHT22;8072;52.554;7.966;2022-12-24T11:48:40;9.60;99.90
15947;DHT22;8072;52.554;7.966;2022-12-24T11:51:25;9.50;99.90
15947;DHT22;8072;52.554;7.966;2022-12-24T11:56:34;9.50;99.90
15947;DHT22;8072;52.554;7.966;2022-12-24T12:04:38;9.50;99.90
15947;DHT22;8072;52.554;7.966;2022-12-24T12:07:27;9.50;99.90
15947;DHT22;8072;52.554;7.966;2022-12-24T12:12:56;9.50;99.90
15947;DHT22;8072;52.554;7.966;2022-12-24T12:15:26;9.50;99.90
15947;DHT22;8072;52.554;7.966;2022-12-24T12:18:02;9.60;99.90
15947;DHT22;8072;52.554;7.966;2022-12-24T12:36:46;9.80;99.90
15947;DHT22;8072;52.554;7.966;2022-12-24T12:39:13;9.80;99.90
15947;DHT22;8072;52.554;7.966;2022-12-24T12:50:11;10.00;99.90
15947;DHT22;8072;52.554;7.966;2022-12-24T12:53:22;10.10;99.90
15947;DHT22;8072;52.554;7.966;2022-12-24T12:58:26;10.10;99.90
15947;DHT22;8072;52.554;7.966;2022-12-24T13:01:04;10.10;99.90
15947;DHT22;8072;52.554;7.966;2022-12-24T13:12:03;10.00;99.90
15947;DHT22;8072;52.554;7.966;2022-12-24T13:14:45;10.10;99.90
15947;DHT22;8072;52.554;7.966;2022-12-24T13:27:56;10.60;99.90
15947;DHT22;8072;52.554;7.966;2022-12-24T13:30:37;10.60;99.90
15947;DHT22;8072;52.554;7.966;2022-12-24T13:33:03;10.60;99.90
15947;DHT22;8072;52.554;7.966;2022-12-24T13:35:32;10.60;99.90
15947;DHT22;8072;52.554;7.966;2022-12-24T13:40:53;10.60;99.90
15947;DHT22;8072;52.554;7.966;2022-12-24T13:43:19;10.50;99.90
15947;DHT22;8072;52.554;7.966;2022-12-24T13:45:49;10.50;99.90
15947;DHT22;8072;52.554;7.966;2022-12-24T13:50:48;10.30;99.90
15947;DHT22;8072;52.554;7.966;2022-12-24T13:58:46;10.00;99.90
15947;DHT22;8072;52.554;7.966;2022-12-24T14:01:19;9.90;99.90
15947;DHT22;8072;52.554;7.966;2022-12-24T14:03:50;9.80;99.90
15947;DHT22;8072;52.554;7.966;2022-12-24T14:06:23;9.80;99.90
15947;DHT22;8072;52.554;7.966;2022-12-24T14:08:52;9.80;99.90
15947;DHT22;8072;52.554;7.966;2022-12-24T14:11:24;9.70;99.90
15947;DHT22;8072;52.554;7.966;2022-12-24T14:14:08;9.70;99.90
15947;DHT22;8072;52.554;7.966;2022-12-24T14:16:42;9.70;99.90
15947;DHT22;8072;52.554;7.966;2022-12-24T14:19:14;9.70;99.90
15947;DHT22;8072;52.554;7.966;2022-12-24T14:22:16;9.70;99.90
15947;DHT22;8072;52.554;7.966;2022-12-24T14:24:55;9.70;99.90
15947;DHT22;8072;52.554;7.966;2022-12-24T14:27:32;9.60;99.90
15947;DHT22;8072;52.554;7.966;2022-12-24T14:32:35;9.50;99.90
15947;DHT22;8072;52.554;7.966;2022-12-24T14:37:41;9.50;99.90
15947;DHT22;8072;52.554;7.966;2022-12-24T14:40:20;9.50;99.90
15947;DHT22;8072;52.554;7.966;2022-12-24T14:56:20;9.50;99.90
15947;DHT22;8072;52.554;7.966;2022-12-24T14:58:50;9.50;99.90
15947;DHT22;8072;52.554;7.966;2022-12-24T15:01:23;9.50;99.90
15947;DHT22;8072;52.554;7.966;2022-12-24T15:06:40;9.50;99.90
15947;DHT22;8072;52.554;7.966;2022-12-24T15:09:24;9.50;99.90
15947;DHT22;8072;52.554;7.966;2022-12-24T15:11:53;9.50;99.90
15947;DHT22;8072;52.554;7.966;2022-12-24T15:14:23;9.40;99.90
15947;DHT22;8072;52.554;7.966;2022-12-24T15:16:56;9.40;99.90
15947;DHT22;8072;52.554;7.966;2022-12-24T15:19:36;9.40;99.90
15947;DHT22;8072;52.554;7.966;2022-12-24T15:22:08;9.40;99.90
15947;DHT22;8072;52.554;7.966;2022-12-24T15:24:44;9.50;99.90
15947;DHT22;8072;52.554;7.966;2022-12-24T15:27:16;9.40;99.90
15947;DHT22;8072;52.554;7.966;2022-12-24T15:29:46;9.40;99.90
15947;DHT22;8072;52.554;7.966;2022-12-24T15:32:14;9.40;99.90
15947;DHT22;8072;52.554;7.966;2022-12-24T15:34:43;9.40;99.90
15947;DHT22;8072;52.554;7.966;2022-12-24T15:42:34;9.30;99.90
15947;DHT22;8072;52.554;7.966;2022-12-24T15:45:06;9.20;99.90
15947;DHT22;8072;52.554;7.966;2022-12-24T15:47:42;9.20;99.90
15947;DHT22;8072;52.554;7.966;2022-12-24T15:50:18;9.10;99.90
15947;DHT22;8072;52.554;7.966;2022-12-24T15:53:05;9.00;99.90
15947;DHT22;8072;52.554;7.966;2022-12-24T15:58:26;8.90;99.90
15947;DHT22;8072;52.554;7.966;2022-12-24T16:03:35;8.80;99.90
15947;DHT22;8072;52.554;7.966;2022-12-24T16:06:22;8.80;99.90
15947;DHT22;8072;52.554;7.966;2022-12-24T16:08:48;8.70;99.90
15947;DHT22;8072;52.554;7.966;2022-12-24T16:11:36;8.70;99.90
15947;DHT22;8072;52.554;7.966;2022-12-24T16:14:16;8.70;99.90
15947;DHT22;8072;52.554;7.966;2022-12-24T16:16:49;8.60;99.90
15947;DHT22;8072;52.554;7.966;2022-12-24T16:19:19;8.60;99.90
15947;DHT22;8072;52.554;7.966;2022-12-24T16:21:45;8.60;99.90
15947;DHT22;8072;52.554;7.966;2022-12-24T16:26:46;8.50;99.90
15947;DHT22;8072;52.554;7.966;2022-12-24T16:29:13;8.50;99.90
15947;DHT22;8072;52.554;7.966;2022-12-24T16:31:54;8.40;99.90
15947;DHT22;8072;52.554;7.966;2022-12-24T16:34:23;8.30;99.90
15947;DHT22;8072;52.554;7.966;2022-12-24T16:36:49;8.20;99.90
15947;DHT22;8072;52.554;7.966;2022-12-24T16:39:21;8.20;99.90
15947;DHT22;8072;52.554;7.966;2022-12-24T16:41:51;8.10;99.90
15947;DHT22;8072;52.554;7.966;2022-12-24T16:44:36;8.00;99.90
15947;DHT22;8072;52.554;7.966;2022-12-24T16:47:03;8.00;99.90
15947;DHT22;8072;52.554;7.966;2022-12-24T16:49:30;7.90;99.90
15947;DHT22;8072;52.554;7.966;2022-12-24T16:51:56;7.90;99.90
15947;DHT22;8072;52.554;7.966;2022-12-24T16:54:21;7.90;99.90
15947;DHT22;8072;52.554;7.966;2022-12-24T16:56:47;7.90;99.90
15947;DHT22;8072;52.554;7.966;2022-12-24T17:01:41;7.80;99.90
15947;DHT22;8072;52.554;7.966;2022-12-24T17:04:07;7.80;99.90
15947;DHT22;8072;52.554;7.966;2022-12-24T17:06:33;7.70;99.90
15947;DHT22;8072;52.554;7.966;2022-12-24T17:08:59;7.70;99.90
15947;DHT22;8072;52.554;7.966;2022-12-24T17:11:24;7.70;99.90
15947;DHT22;8072;52.554;7.966;2022-12-24T17:13:50;7.70;99.90
15947;DHT22;8072;52.554;7.966;2022-12-24T17:16:16;7.60;99.90
15947;DHT22;8072;52.554;7.966;2022-12-24T17:18:42;7.60;99.90
15947;DHT22;8072;52.554;7.966;2022-12-24T17:21:09;7.60;99.90
15947;DHT22;8072;52.554;7.966;2022-12-24T17:23:35;7.50;99.90
15947;DHT22;8072;52.554;7.966;2022-12-24T17:26:01;7.40;99.90
15947;DHT22;8072;52.554;7.966;2022-12-24T17:28:27;7.40;99.90
15947;DHT22;8072;52.554;7.966;2022-12-24T17:30:53;7.30;99.90
15947;DHT22;8072;52.554;7.966;2022-12-24T17:33:19;7.30;99.90
15947;DHT22;8072;52.554;7.966;2022-12-24T17:35:44;7.30;99.90
15947;DHT22;8072;52.554;7.966;2022-12-24T17:38:12;7.30;99.90
15947;DHT22;8072;52.554;7.966;2022-12-24T17:40:38;7.20;99.90
15947;DHT22;8072;52.554;7.966;2022-12-24T17:43:04;7.20;99.90
15947;DHT22;8072;52.554;7.966;2022-12-24T17:45:30;7.10;99.90
15947;DHT22;8072;52.554;7.966;2022-12-24T17:47:55;7.10;99.90
15947;DHT22;8072;52.554;7.966;2022-12-24T17:50:21;7.10;99.90
15947;DHT22;8072;52.554;7.966;2022-12-24T17:52:47;6.90;99.90
15947;DHT22;8072;52.554;7.966;2022-12-24T17:55:12;6.90;99.90
15947;DHT22;8072;52.554;7.966;2022-12-24T17:57:38;6.70;99.90
15947;DHT22;8072;52.554;7.966;2022-12-24T18:00:05;6.70;99.90
15947;DHT22;8072;52.554;7.966;2022-12-24T18:02:30;6.60;99.90
15947;DHT22;8072;52.554;7.966;2022-12-24T18:04:56;6.50;99.90
15947;DHT22;8072;52.554;7.966;2022-12-24T18:07:24;6.50;99.90
15947;DHT22;8072;52.554;7.966;2022-12-24T18:09:50;6.50;99.90
15947;DHT22;8072;52.554;7.966;2022-12-24T18:12:16;6.40;99.90
15947;DHT22;8072;52.554;7.966;2022-12-24T18:14:42;6.40;99.90
15947;DHT22;8072;52.554;7.966;2022-12-24T18:17:08;6.40;99.90
15947;DHT22;8072;52.554;7.966;2022-12-24T18:19:33;6.30;99.90
15947;DHT22;8072;52.554;7.966;2022-12-24T18:21:59;6.30;99.90
15947;DHT22;8072;52.554;7.966;2022-12-24T18:24:25;6.20;99.90
15947;DHT22;8072;52.554;7.966;2022-12-24T18:26:51;6.20;99.90
15947;DHT22;8072;52.554;7.966;2022-12-24T18:29:16;6.20;99.90
15947;DHT22;8072;52.554;7.966;2022-12-24T18:31:42;6.20;99.90
15947;DHT22;8072;52.554;7.966;2022-12-24T18:34:11;6.10;99.90
15947;DHT22;8072;52.554;7.966;2022-12-24T18:36:37;6.10;99.90
15947;DHT22;8072;52.554;7.966;2022-12-24T18:39:03;6.10;99.90
15947;DHT22;8072;52.554;7.966;2022-12-24T18:41:31;6.00;99.90